4I3

Knox County Airport

Mount Vernon, Ohio, USA
METAR K4I3 161937Z AUTO 19005KT 5SM -RA SCT007 SCT014 SCT031 29/24 A2995 RMK AO2
Observed Flight Rules
Jul-16 @ 19:37 UTC (18 minutes ago) Marginal Visual Flight Rules
Wind Visibility Clouds Conditions
190° at 5 knots 5 miles
  • Scattered at 700' AGL
  • Scattered at 1,400' AGL
  • Scattered at 3,100' AGL
  • Light Rain
Temperatures Readings
Current 29°C / 84°F
Dewpoint 24°C / 75°F
Humidity 74%
Altimeter 29.95" Hg
Pressure 1014 hPa
Elevation 363
METAR K4I3 161937Z AUTO 19005KT 5SM -RA SCT007 SCT014 SCT031 29/24 A2995 RMK AO2
Observed Flight Rules
Jul-16 @ 19:37 UTC
(18 minutes ago)
MVFR
Wind Visibility
190° at 5 knots 5 miles
Clouds
  • Scattered at 700' AGL
  • Scattered at 1,400' AGL
  • Scattered at 3,100' AGL
Conditions
  • Light Rain
Temperature Dewpoint
29°C / 84°F 24°C / 75°F
Humidity Altimeter Pressure
74% 29.95" Hg 1014 hPa